< < Back
Terminal Aerodrome Forecast


Current Version              Previous Versions:   1  2  3  4  5  6  7  8  9  

Terminal Aerodrome Forecast

964
FTUS42 KJAX 241721
TAFGNV
TAF
KGNV 241721Z 2418/2518 34005KT P6SM BKN040
     FM242100 06007KT P6SM VCTS BKN050CB
     FM250000 VRB03KT P6SM SCT050
     FM250800 00000KT 4SM BR FEW250
     FM251100 00000KT 1SM BR FEW002 FEW250
     FM251330 01003KT P6SM SCT030=



Latest METAR

468
SAUS70 KWBC 250900 RRI
MTRGNV
METAR KGNV 250853Z AUTO 00000KT 10SM CLR 22/21 A3001 RMK AO2 SLP160
T02170206 55002


USA.gov is the U.S. government's official web portal to all federal, state and local government web resources and services.